createdAt,value
2023-09-17T00:00:39.575Z,2.00
2023-09-17T00:01:39.649Z,1.60
2023-09-17T00:02:39.556Z,1.60
2023-09-17T00:03:39.703Z,1.70
2023-09-17T00:04:39.578Z,1.30
2023-09-17T00:05:39.527Z,1.90
2023-09-17T00:06:39.528Z,1.20
2023-09-17T00:07:39.639Z,1.50
2023-09-17T00:08:39.529Z,1.40
2023-09-17T00:09:39.503Z,1.80
2023-09-17T00:10:39.498Z,2.00
2023-09-17T00:11:39.475Z,2.50
2023-09-17T00:12:39.445Z,1.40
2023-09-17T00:13:39.609Z,1.80
2023-09-17T00:14:39.497Z,1.60
2023-09-17T00:15:39.440Z,2.00
2023-09-17T00:16:39.520Z,2.20
2023-09-17T00:17:39.442Z,1.70
2023-09-17T00:18:39.395Z,1.50
2023-09-17T00:19:39.456Z,1.20
2023-09-17T00:20:39.371Z,1.90
2023-09-17T00:21:39.418Z,1.90
2023-09-17T00:22:39.383Z,1.60
2023-09-17T00:23:39.372Z,1.40
2023-09-17T00:24:39.335Z,2.40
2023-09-17T00:25:39.467Z,1.30
2023-09-17T00:26:39.302Z,1.30
2023-09-17T00:27:39.301Z,1.90
2023-09-17T00:28:39.330Z,1.50
2023-09-17T00:29:39.258Z,1.00
2023-09-17T00:30:39.311Z,2.20
2023-09-17T00:31:39.336Z,2.10
2023-09-17T00:32:39.255Z,1.90
2023-09-17T00:33:39.229Z,2.00
2023-09-17T00:34:39.308Z,2.20
2023-09-17T00:35:39.220Z,1.60
2023-09-17T00:36:39.228Z,1.70
2023-09-17T00:37:39.183Z,2.10
2023-09-17T00:38:39.193Z,1.50
2023-09-17T00:39:39.177Z,2.20
2023-09-17T00:40:39.179Z,2.60
2023-09-17T00:41:39.168Z,2.10
2023-09-17T00:42:39.124Z,1.50
2023-09-17T00:43:39.146Z,2.00
2023-09-17T00:44:39.127Z,1.70
2023-09-17T00:45:39.137Z,1.40
2023-09-17T00:46:39.187Z,1.60
2023-09-17T00:47:39.100Z,2.40
2023-09-17T00:48:39.074Z,1.80
2023-09-17T00:49:39.080Z,1.40
2023-09-17T00:50:40.570Z,1.70
2023-09-17T00:51:39.045Z,2.00
2023-09-17T00:52:39.094Z,1.90
2023-09-17T00:53:39.012Z,2.30
2023-09-17T00:54:38.996Z,2.30
2023-09-17T00:55:39.072Z,1.60
2023-09-17T00:56:38.978Z,2.00
2023-09-17T00:57:38.995Z,1.60
2023-09-17T00:58:39.018Z,1.40
2023-09-17T00:59:38.970Z,1.60
2023-09-17T01:00:38.937Z,1.50
2023-09-17T01:01:39.002Z,1.80
2023-09-17T01:02:39.017Z,1.90
2023-09-17T01:03:39.012Z,1.70
2023-09-17T01:04:38.959Z,2.10
2023-09-17T01:05:38.891Z,2.40
2023-09-17T01:06:38.895Z,2.20
2023-09-17T01:07:39.048Z,1.30
2023-09-17T01:08:38.942Z,1.70
2023-09-17T01:09:38.858Z,2.00
2023-09-17T01:10:38.908Z,1.90
2023-09-17T01:11:38.823Z,1.20
2023-09-17T01:12:38.809Z,1.60
2023-09-17T01:13:38.904Z,2.00
2023-09-17T01:14:38.793Z,2.50
2023-09-17T01:15:38.924Z,1.30
2023-09-17T01:16:38.880Z,1.30
2023-09-17T01:17:38.810Z,1.30
2023-09-17T01:18:38.798Z,2.00
2023-09-17T01:19:38.782Z,1.30
2023-09-17T01:20:38.729Z,1.00
2023-09-17T01:21:38.732Z,2.00
2023-09-17T01:22:38.749Z,2.30
2023-09-17T01:23:38.717Z,2.00
2023-09-17T01:24:38.718Z,2.20
2023-09-17T01:25:38.718Z,2.20
2023-09-17T01:26:38.673Z,1.50
2023-09-17T01:27:38.685Z,1.60
2023-09-17T01:28:38.727Z,2.90
2023-09-17T01:29:38.664Z,1.90
2023-09-17T01:30:38.630Z,1.90
2023-09-17T01:31:38.676Z,1.80
2023-09-17T01:32:38.644Z,1.80
2023-09-17T01:33:38.711Z,1.80
2023-09-17T01:34:38.794Z,2.60
2023-09-17T01:35:38.592Z,2.10
2023-09-17T01:36:38.577Z,1.30
2023-09-17T01:37:38.621Z,2.10
2023-09-17T01:38:38.563Z,2.80
2023-09-17T01:39:38.612Z,1.90
2023-09-17T01:40:38.605Z,1.50
2023-09-17T01:41:38.527Z,1.80
2023-09-17T01:42:38.500Z,2.20
2023-09-17T01:43:38.564Z,2.50
2023-09-17T01:44:38.506Z,2.20
2023-09-17T01:45:38.495Z,2.10
2023-09-17T01:46:38.482Z,1.20
2023-09-17T01:47:38.489Z,2.10
2023-09-17T01:48:38.444Z,2.70
2023-09-17T01:49:38.469Z,1.40
2023-09-17T01:50:38.432Z,1.60
2023-09-17T01:51:38.419Z,1.40
2023-09-17T01:52:38.424Z,2.70
2023-09-17T01:53:38.389Z,1.90
2023-09-17T01:54:38.376Z,2.30
2023-09-17T01:55:38.472Z,1.90
2023-09-17T01:56:38.381Z,1.90
2023-09-17T01:57:38.356Z,2.20
2023-09-17T01:58:38.369Z,2.40
2023-09-17T01:59:38.325Z,1.60
2023-09-17T02:00:38.334Z,1.50
2023-09-17T02:01:38.375Z,2.40
2023-09-17T02:02:38.392Z,1.80
2023-09-17T02:03:38.372Z,2.10
2023-09-17T02:04:38.342Z,2.20
2023-09-17T02:05:38.279Z,1.80
2023-09-17T02:06:38.283Z,2.10
2023-09-17T02:07:38.262Z,2.20
2023-09-17T02:08:38.234Z,2.00
2023-09-17T02:09:38.219Z,2.10
2023-09-17T02:10:38.255Z,1.70
2023-09-17T02:11:38.224Z,1.70
2023-09-17T02:12:38.210Z,2.00
2023-09-17T02:13:38.215Z,2.20
2023-09-17T02:14:38.180Z,2.40
2023-09-17T02:15:38.181Z,1.40
2023-09-17T02:16:38.148Z,1.70
2023-09-17T02:17:38.173Z,3.40
2023-09-17T02:18:38.131Z,2.20
2023-09-17T02:19:38.189Z,2.20
2023-09-17T02:20:38.094Z,2.50
2023-09-17T02:21:38.086Z,1.60
2023-09-17T02:22:38.130Z,1.30
2023-09-17T02:23:38.061Z,1.90
2023-09-17T02:24:38.073Z,1.60
2023-09-17T02:25:38.097Z,1.90
2023-09-17T02:26:38.039Z,2.30
2023-09-17T02:27:38.032Z,2.20
2023-09-17T02:28:38.034Z,2.10
2023-09-17T02:29:38.008Z,2.70
2023-09-17T02:30:37.993Z,2.10
2023-09-17T02:31:38.024Z,2.20
2023-09-17T02:32:38.003Z,2.40
2023-09-17T02:33:37.959Z,2.20
2023-09-17T02:34:38.073Z,2.10
2023-09-17T02:35:37.968Z,1.80
2023-09-17T02:36:37.912Z,3.00
2023-09-17T02:37:37.916Z,2.90
2023-09-17T02:38:37.959Z,1.70
2023-09-17T02:39:37.889Z,3.60
2023-09-17T02:40:37.975Z,2.10
2023-09-17T02:41:37.909Z,2.30
2023-09-17T02:42:37.862Z,1.70
2023-09-17T02:43:38.014Z,2.10
2023-09-17T02:44:37.863Z,2.90
2023-09-17T02:45:37.824Z,1.90
2023-09-17T02:46:37.918Z,2.00
2023-09-17T02:47:37.873Z,2.20
2023-09-17T02:48:37.825Z,2.40
2023-09-17T02:49:37.876Z,2.10
2023-09-17T02:50:37.773Z,2.30
2023-09-17T02:51:37.867Z,2.00
2023-09-17T02:52:37.805Z,2.10
2023-09-17T02:53:37.778Z,2.10
2023-09-17T02:54:37.795Z,2.30
2023-09-17T02:55:37.753Z,2.00
2023-09-17T02:56:37.781Z,2.60
2023-09-17T02:57:37.708Z,1.60
2023-09-17T02:58:37.727Z,2.00
2023-09-17T02:59:37.688Z,1.90
2023-09-17T03:00:39.789Z,2.30
2023-09-17T03:01:37.678Z,1.80
2023-09-17T03:02:37.754Z,1.40
2023-09-17T03:03:37.699Z,2.70
2023-09-17T03:04:37.683Z,1.90
2023-09-17T03:05:37.616Z,2.20
2023-09-17T03:06:37.638Z,2.90
2023-09-17T03:07:37.617Z,2.60
2023-09-17T03:08:37.646Z,1.90
2023-09-17T03:09:37.628Z,2.20
2023-09-17T03:10:37.606Z,2.50
2023-09-17T03:11:37.575Z,1.70
2023-09-17T03:12:37.562Z,3.10
2023-09-17T03:13:37.561Z,2.10
2023-09-17T03:14:37.541Z,2.00
2023-09-17T03:15:37.519Z,1.80
2023-09-17T03:16:37.605Z,2.30
2023-09-17T03:17:37.604Z,2.10
2023-09-17T03:18:37.488Z,2.70
2023-09-17T03:19:37.501Z,1.80
2023-09-17T03:20:37.461Z,2.80
2023-09-17T03:21:37.470Z,3.10
2023-09-17T03:22:37.562Z,3.30
2023-09-17T03:23:37.425Z,3.10
2023-09-17T03:24:39.311Z,1.90
2023-09-17T03:25:37.477Z,3.00
2023-09-17T03:26:37.421Z,2.90
2023-09-17T03:27:37.395Z,2.90
2023-09-17T03:28:37.398Z,2.10
2023-09-17T03:29:37.386Z,2.30
2023-09-17T03:30:37.437Z,2.70
2023-09-17T03:31:37.408Z,2.60
2023-09-17T03:32:43.619Z,2.90
2023-09-17T03:33:37.371Z,2.30
2023-09-17T03:34:37.343Z,2.50
2023-09-17T03:35:37.325Z,2.10
2023-09-17T03:36:37.284Z,2.20
2023-09-17T03:37:37.365Z,2.50
2023-09-17T03:38:37.277Z,2.50
2023-09-17T03:39:37.272Z,2.80
2023-09-17T03:40:37.259Z,3.10
2023-09-17T03:41:37.238Z,2.70
2023-09-17T03:42:37.250Z,3.40
2023-09-17T03:43:37.252Z,2.90
2023-09-17T03:44:37.216Z,3.00
2023-09-17T03:45:37.211Z,2.10
2023-09-17T03:46:37.297Z,1.70
2023-09-17T03:47:37.268Z,2.30
2023-09-17T03:48:37.169Z,2.70
2023-09-17T03:49:37.189Z,2.00
2023-09-17T03:50:37.154Z,2.60
2023-09-17T03:51:37.146Z,2.50
2023-09-17T03:52:37.170Z,2.60
2023-09-17T03:53:37.154Z,2.90
2023-09-17T03:54:37.116Z,2.70
2023-09-17T03:55:37.133Z,2.60
2023-09-17T03:56:37.091Z,2.70
2023-09-17T03:57:37.087Z,2.60
2023-09-17T03:58:37.120Z,2.10
2023-09-17T03:59:37.058Z,3.00
2023-09-17T04:00:37.032Z,2.40
2023-09-17T04:01:37.112Z,2.90
2023-09-17T04:02:37.202Z,3.20
2023-09-17T04:03:37.069Z,3.30
2023-09-17T04:04:37.020Z,2.20
2023-09-17T04:05:36.990Z,3.00
2023-09-17T04:06:36.973Z,2.40
2023-09-17T04:07:36.996Z,3.40
2023-09-17T04:08:36.943Z,3.60
2023-09-17T04:09:36.961Z,2.30
2023-09-17T04:10:36.997Z,2.80
2023-09-17T04:11:36.913Z,2.20
2023-09-17T04:12:36.923Z,2.70
2023-09-17T04:13:36.926Z,2.60
2023-09-17T04:14:36.928Z,2.60
2023-09-17T04:15:36.884Z,2.70
2023-09-17T04:16:36.993Z,2.30
2023-09-17T04:17:36.903Z,2.90
2023-09-17T04:18:36.866Z,2.90
2023-09-17T04:19:36.855Z,2.20
2023-09-17T04:20:36.863Z,1.70
2023-09-17T04:21:36.816Z,3.00
2023-09-17T04:22:36.859Z,3.00
2023-09-17T04:23:36.794Z,2.70
2023-09-17T04:24:37.117Z,3.50
2023-09-17T04:25:36.832Z,2.10
2023-09-17T04:26:36.766Z,2.40
2023-09-17T04:27:36.738Z,2.90
2023-09-17T04:28:36.804Z,2.70
2023-09-17T04:29:36.739Z,3.20
2023-09-17T04:30:36.741Z,2.50
2023-09-17T04:31:36.815Z,3.30
2023-09-17T04:32:36.844Z,3.00
2023-09-17T04:33:36.686Z,3.10
2023-09-17T04:34:36.699Z,2.70
2023-09-17T04:35:36.695Z,3.00
2023-09-17T04:36:36.672Z,2.70
2023-09-17T04:37:36.721Z,3.50
2023-09-17T04:38:36.645Z,2.30
2023-09-17T04:39:36.671Z,3.00
2023-09-17T04:40:36.773Z,3.00
2023-09-17T04:41:36.607Z,3.10
2023-09-17T04:42:36.607Z,3.80
2023-09-17T04:43:36.645Z,2.60
2023-09-17T04:44:36.600Z,2.80
2023-09-17T04:45:36.976Z,3.00
2023-09-17T04:46:36.682Z,3.60
2023-09-17T04:47:36.550Z,2.50
2023-09-17T04:48:36.544Z,3.80
2023-09-17T04:49:36.670Z,3.80
2023-09-17T04:50:36.522Z,2.60
2023-09-17T04:51:36.524Z,3.10
2023-09-17T04:52:36.498Z,2.80
2023-09-17T04:53:36.499Z,3.30
2023-09-17T04:54:36.483Z,4.10
2023-09-17T04:55:36.474Z,2.50
2023-09-17T04:56:36.432Z,3.80
2023-09-17T04:57:36.417Z,3.40
2023-09-17T04:58:36.465Z,2.90
2023-09-17T04:59:36.376Z,3.50
2023-09-17T05:00:36.366Z,2.80
2023-09-17T05:01:36.434Z,3.40
2023-09-17T05:02:36.384Z,2.60
2023-09-17T05:03:36.443Z,2.80
2023-09-17T05:04:36.357Z,2.80
2023-09-17T05:05:36.315Z,3.30
2023-09-17T05:06:36.300Z,2.70
2023-09-17T05:07:36.319Z,4.10
2023-09-17T05:08:36.291Z,3.20
2023-09-17T05:09:36.261Z,3.80
2023-09-17T05:10:36.347Z,2.70
2023-09-17T05:11:36.251Z,3.60
2023-09-17T05:12:36.262Z,2.90
2023-09-17T05:13:36.255Z,3.70
2023-09-17T05:14:36.218Z,2.70
2023-09-17T05:15:36.248Z,2.90
2023-09-17T05:16:36.288Z,2.10
2023-09-17T05:17:36.218Z,3.20
2023-09-17T05:18:36.198Z,3.60
2023-09-17T05:19:36.176Z,2.80
2023-09-17T05:20:36.154Z,2.70
2023-09-17T05:21:36.145Z,3.80
2023-09-17T05:22:36.459Z,3.50
2023-09-17T05:23:36.121Z,4.20
2023-09-17T05:24:36.115Z,3.90
2023-09-17T05:25:36.170Z,2.70
2023-09-17T05:26:36.107Z,3.20
2023-09-17T05:27:36.138Z,3.40
2023-09-17T05:28:36.141Z,4.10
2023-09-17T05:29:36.115Z,3.50
2023-09-17T05:30:36.104Z,3.80
2023-09-17T05:31:36.091Z,3.00
2023-09-17T05:32:36.131Z,4.10
2023-09-17T05:33:36.011Z,4.20
2023-09-17T05:34:36.157Z,4.00
2023-09-17T05:35:36.035Z,3.50
2023-09-17T05:36:36.034Z,3.70
2023-09-17T05:37:36.045Z,2.70
2023-09-17T05:38:35.990Z,3.10
2023-09-17T05:39:35.994Z,2.30
2023-09-17T05:40:36.033Z,2.90
2023-09-17T05:41:35.938Z,3.80
2023-09-17T05:42:35.921Z,3.30
2023-09-17T05:43:35.951Z,3.60
2023-09-17T05:44:35.942Z,3.90
2023-09-17T05:45:35.921Z,1.80
2023-09-17T05:46:35.893Z,3.60
2023-09-17T05:47:36.161Z,3.30
2023-09-17T05:48:35.874Z,3.90
2023-09-17T05:49:35.987Z,3.90
2023-09-17T05:50:35.898Z,3.60
2023-09-17T05:51:35.855Z,5.10
2023-09-17T05:52:35.944Z,3.70
2023-09-17T05:53:35.825Z,3.10
2023-09-17T05:54:35.834Z,2.80
2023-09-17T05:55:35.823Z,3.90
2023-09-17T05:56:35.785Z,3.80
2023-09-17T05:57:35.800Z,3.10
2023-09-17T05:58:35.797Z,2.70
2023-09-17T05:59:35.737Z,3.60
2023-09-17T06:00:35.764Z,2.60
2023-09-17T06:01:35.782Z,3.10
2023-09-17T06:02:35.722Z,4.60
2023-09-17T06:03:35.770Z,2.80
2023-09-17T06:04:35.719Z,3.00
2023-09-17T06:05:35.709Z,2.70
2023-09-17T06:06:35.673Z,2.90
2023-09-17T06:07:35.690Z,3.40
2023-09-17T06:08:35.657Z,2.40
2023-09-17T06:09:35.648Z,3.00
2023-09-17T06:10:35.677Z,3.30
2023-09-17T06:11:35.633Z,3.20
2023-09-17T06:12:35.629Z,3.60
2023-09-17T06:13:35.630Z,4.00
2023-09-17T06:14:35.638Z,2.60
2023-09-17T06:15:35.673Z,3.20
2023-09-17T06:16:46.537Z,4.30
2023-09-17T06:17:35.623Z,3.30
2023-09-17T06:18:35.568Z,3.10
2023-09-17T06:19:35.572Z,3.10
2023-09-17T06:20:35.555Z,2.30
2023-09-17T06:21:35.535Z,3.40
2023-09-17T06:22:35.576Z,3.50
2023-09-17T06:23:35.487Z,3.80
2023-09-17T06:24:35.497Z,3.50
2023-09-17T06:25:35.536Z,3.80
2023-09-17T06:26:35.505Z,3.80
2023-09-17T06:27:35.456Z,3.70
2023-09-17T06:28:35.523Z,4.60
2023-09-17T06:29:35.430Z,4.00
2023-09-17T06:30:35.429Z,3.40
2023-09-17T06:31:35.693Z,3.10
2023-09-17T06:32:35.432Z,4.10
2023-09-17T06:33:35.400Z,4.20
2023-09-17T06:34:35.383Z,3.60
2023-09-17T06:35:35.462Z,3.20
2023-09-17T06:36:35.420Z,3.70
2023-09-17T06:37:35.369Z,2.90
2023-09-17T06:38:35.366Z,2.60
2023-09-17T06:39:35.349Z,3.00
2023-09-17T06:40:35.333Z,2.70
2023-09-17T06:41:38.180Z,3.40
2023-09-17T06:42:35.348Z,3.90
2023-09-17T06:43:35.297Z,2.90
2023-09-17T06:44:35.269Z,4.00
2023-09-17T06:45:35.312Z,4.00
2023-09-17T06:46:35.402Z,2.70
2023-09-17T06:47:35.365Z,3.80
2023-09-17T06:48:35.289Z,3.20
2023-09-17T06:49:35.252Z,3.30
2023-09-17T06:50:35.236Z,4.40
2023-09-17T06:51:35.189Z,3.40
2023-09-17T06:52:35.224Z,2.90
2023-09-17T06:53:35.202Z,3.60
2023-09-17T06:54:35.165Z,3.50
2023-09-17T06:55:35.333Z,3.90
2023-09-17T06:56:35.162Z,2.90
2023-09-17T06:57:35.916Z,3.90
2023-09-17T06:58:35.146Z,4.10
2023-09-17T06:59:35.132Z,2.30
2023-09-17T07:00:35.103Z,4.10
2023-09-17T07:01:35.305Z,4.00
2023-09-17T07:02:35.179Z,4.00
2023-09-17T07:03:35.124Z,2.30
2023-09-17T07:04:35.151Z,3.00
2023-09-17T07:05:35.096Z,4.00
2023-09-17T07:06:35.038Z,3.60
2023-09-17T07:07:35.029Z,3.40
2023-09-17T07:08:35.029Z,3.80
2023-09-17T07:09:35.027Z,2.70
2023-09-17T07:10:35.062Z,3.10
2023-09-17T07:11:35.010Z,4.20
2023-09-17T07:12:34.984Z,3.30
2023-09-17T07:13:35.041Z,3.40
2023-09-17T07:14:34.945Z,3.50
2023-09-17T07:15:34.952Z,3.20
2023-09-17T07:16:34.993Z,4.10
2023-09-17T07:17:35.183Z,3.10
2023-09-17T07:18:35.212Z,2.40
2023-09-17T07:19:35.186Z,3.00
2023-09-17T07:20:35.001Z,2.80
2023-09-17T07:21:35.030Z,3.30
2023-09-17T07:22:34.893Z,3.70
2023-09-17T07:23:34.872Z,3.20
2023-09-17T07:24:34.853Z,2.50
2023-09-17T07:25:34.856Z,2.80
2023-09-17T07:26:34.823Z,3.90
2023-09-17T07:27:34.848Z,3.30
2023-09-17T07:28:34.834Z,4.10
2023-09-17T07:29:34.799Z,3.60
2023-09-17T07:30:34.788Z,3.00
2023-09-17T07:31:34.864Z,3.40
2023-09-17T07:32:34.862Z,3.10
2023-09-17T07:33:34.737Z,3.30
2023-09-17T07:34:34.783Z,2.10
2023-09-17T07:35:34.725Z,2.90
2023-09-17T07:36:34.770Z,4.90
2023-09-17T07:37:50.050Z,2.90
2023-09-17T07:38:34.774Z,3.60
2023-09-17T07:39:34.697Z,3.20
2023-09-17T07:40:34.836Z,3.00
2023-09-17T07:41:34.673Z,2.80
2023-09-17T07:42:34.678Z,2.30
2023-09-17T07:43:34.698Z,2.80
2023-09-17T07:44:34.646Z,3.90
2023-09-17T07:45:34.625Z,3.40
2023-09-17T07:46:34.677Z,3.00
2023-09-17T07:47:34.677Z,3.00
2023-09-17T07:48:34.600Z,3.20
2023-09-17T07:49:34.691Z,4.00
2023-09-17T07:50:34.610Z,3.10
2023-09-17T07:51:34.550Z,2.70
2023-09-17T07:52:34.618Z,3.90
2023-09-17T07:53:34.541Z,3.60
2023-09-17T07:54:34.531Z,3.10
2023-09-17T07:55:34.545Z,3.40
2023-09-17T07:56:34.522Z,2.80
2023-09-17T07:57:34.534Z,2.80
2023-09-17T07:58:34.516Z,3.40
2023-09-17T07:59:34.509Z,2.60
2023-09-17T08:00:34.485Z,3.00
2023-09-17T08:01:34.585Z,3.00
2023-09-17T08:02:34.641Z,2.90
2023-09-17T08:03:34.523Z,2.20
2023-09-17T08:04:34.523Z,2.60
2023-09-17T08:05:34.420Z,4.10
2023-09-17T08:06:34.456Z,4.20
2023-09-17T08:07:34.459Z,2.60
2023-09-17T08:08:34.457Z,3.50
2023-09-17T08:09:34.443Z,3.50
2023-09-17T08:10:34.507Z,2.90
2023-09-17T08:11:34.444Z,3.80
2023-09-17T08:12:34.348Z,3.00
2023-09-17T08:13:34.375Z,2.60
2023-09-17T08:14:34.321Z,2.30
2023-09-17T08:15:34.345Z,2.20
2023-09-17T08:16:34.347Z,2.40
2023-09-17T08:17:34.343Z,2.30
2023-09-17T08:18:34.291Z,2.80
2023-09-17T08:19:34.293Z,2.40
2023-09-17T08:20:34.284Z,2.60
2023-09-17T08:21:34.258Z,2.20
2023-09-17T08:22:34.273Z,2.50
2023-09-17T08:23:34.249Z,2.10
2023-09-17T08:24:34.211Z,2.30
2023-09-17T08:25:34.290Z,2.00
2023-09-17T08:26:34.252Z,2.10
2023-09-17T08:27:34.185Z,1.90
2023-09-17T08:28:34.190Z,2.40
2023-09-17T08:29:34.177Z,2.10
2023-09-17T08:30:34.197Z,1.70
2023-09-17T08:31:34.190Z,2.30
2023-09-17T08:32:34.144Z,2.30
2023-09-17T08:33:34.120Z,1.50
2023-09-17T08:34:34.145Z,1.70
2023-09-17T08:35:34.187Z,1.60
2023-09-17T08:36:34.115Z,2.00
2023-09-17T08:37:34.093Z,1.80
2023-09-17T08:38:34.058Z,1.20
2023-09-17T08:39:34.067Z,1.60
2023-09-17T08:40:34.145Z,1.60
2023-09-17T08:41:34.041Z,2.10
2023-09-17T08:42:34.030Z,2.00
2023-09-17T08:43:34.027Z,1.90
2023-09-17T08:44:34.008Z,2.10
2023-09-17T08:45:34.001Z,0.90
2023-09-17T08:46:34.036Z,1.90
2023-09-17T08:47:34.121Z,1.60
2023-09-17T08:48:33.945Z,2.30
2023-09-17T08:49:34.012Z,1.50
2023-09-17T08:50:33.938Z,1.80
2023-09-17T08:51:33.938Z,1.50
2023-09-17T08:52:33.966Z,1.60
2023-09-17T08:53:33.931Z,2.10
2023-09-17T08:54:33.910Z,1.80
2023-09-17T08:55:34.180Z,1.80
2023-09-17T08:56:33.879Z,1.80
2023-09-17T08:57:33.898Z,1.70
2023-09-17T08:58:33.983Z,2.20
2023-09-17T08:59:33.857Z,1.00
2023-09-17T09:00:33.840Z,1.40
2023-09-17T09:01:33.866Z,1.40
2023-09-17T09:02:33.989Z,2.30
2023-09-17T09:03:33.869Z,1.40
2023-09-17T09:04:33.845Z,1.90
2023-09-17T09:05:33.794Z,1.50
2023-09-17T09:06:33.788Z,2.30
2023-09-17T09:07:33.843Z,1.80
2023-09-17T09:08:33.794Z,2.20
2023-09-17T09:09:33.752Z,1.30
2023-09-17T09:10:33.791Z,1.70
2023-09-17T09:11:33.748Z,1.70
2023-09-17T09:12:33.712Z,1.70
2023-09-17T09:13:33.754Z,1.80
2023-09-17T09:14:33.718Z,1.50
2023-09-17T09:15:33.688Z,1.30
2023-09-17T09:16:33.775Z,1.60
2023-09-17T09:17:33.742Z,1.40
2023-09-17T09:18:33.687Z,2.00
2023-09-17T09:19:33.676Z,1.50
2023-09-17T09:20:33.632Z,2.00
2023-09-17T09:21:33.655Z,1.30
2023-09-17T09:22:33.639Z,1.40
2023-09-17T09:23:33.630Z,1.70
2023-09-17T09:24:33.582Z,1.90
2023-09-17T09:25:33.599Z,1.60
2023-09-17T09:26:33.567Z,1.70
2023-09-17T09:27:33.562Z,0.90
2023-09-17T09:28:33.604Z,1.70
2023-09-17T09:29:33.534Z,1.30
2023-09-17T09:30:33.554Z,1.20
2023-09-17T09:31:33.589Z,1.40
2023-09-17T09:32:33.647Z,1.20
2023-09-17T09:33:33.528Z,1.30
2023-09-17T09:34:33.541Z,1.50
2023-09-17T09:35:33.487Z,1.70
2023-09-17T09:36:33.472Z,1.40
2023-09-17T09:37:33.542Z,1.70
2023-09-17T09:38:33.439Z,1.80
2023-09-17T09:39:33.465Z,1.60
2023-09-17T09:40:33.441Z,1.80
2023-09-17T09:41:33.437Z,1.60
2023-09-17T09:42:33.404Z,2.10
2023-09-17T09:43:33.446Z,1.30
2023-09-17T09:44:33.417Z,1.80
2023-09-17T09:45:33.393Z,1.30
2023-09-17T09:46:33.396Z,1.50
2023-09-17T09:47:33.423Z,2.00
2023-09-17T09:48:33.340Z,1.40
2023-09-17T09:49:33.352Z,1.70
2023-09-17T09:50:33.319Z,1.30
2023-09-17T09:51:33.356Z,1.30
2023-09-17T09:52:33.312Z,1.70
2023-09-17T09:53:33.311Z,1.40
2023-09-17T09:54:33.282Z,1.60
2023-09-17T09:55:33.296Z,1.10
2023-09-17T09:56:33.310Z,1.20
2023-09-17T09:57:33.255Z,1.90
2023-09-17T09:58:33.274Z,2.00
2023-09-17T09:59:33.243Z,1.50
2023-09-17T10:00:33.210Z,1.70
2023-09-17T10:01:33.304Z,1.90
2023-09-17T10:02:33.211Z,1.50
2023-09-17T10:03:33.192Z,2.10
2023-09-17T10:04:33.288Z,2.10
2023-09-17T10:05:33.168Z,1.70
2023-09-17T10:06:33.167Z,1.30
2023-09-17T10:07:33.172Z,1.40
2023-09-17T10:08:33.138Z,1.70
2023-09-17T10:09:33.134Z,1.30
2023-09-17T10:10:33.162Z,1.10
2023-09-17T10:11:33.249Z,1.70
2023-09-17T10:12:33.095Z,0.90
2023-09-17T10:13:33.108Z,1.30
2023-09-17T10:14:33.140Z,1.00
2023-09-17T10:15:33.121Z,1.30
2023-09-17T10:16:33.111Z,1.10
2023-09-17T10:17:33.102Z,1.80
2023-09-17T10:18:33.027Z,1.40
2023-09-17T10:19:33.060Z,1.50
2023-09-17T10:20:33.040Z,1.60
2023-09-17T10:21:33.010Z,1.30
2023-09-17T10:22:33.005Z,1.50
2023-09-17T10:23:32.999Z,1.50
2023-09-17T10:24:32.982Z,1.50
2023-09-17T10:25:33.029Z,1.10
2023-09-17T10:26:32.943Z,1.20
2023-09-17T10:27:32.946Z,1.50
2023-09-17T10:28:32.973Z,1.50
2023-09-17T10:29:32.957Z,1.30
2023-09-17T10:30:32.942Z,1.40
2023-09-17T10:31:33.018Z,1.30
2023-09-17T10:32:34.063Z,1.40
2023-09-17T10:33:33.010Z,1.40
2023-09-17T10:34:32.935Z,1.20
2023-09-17T10:35:32.872Z,1.80
2023-09-17T10:36:32.862Z,1.00
2023-09-17T10:37:32.884Z,1.80
2023-09-17T10:38:32.874Z,1.60
2023-09-17T10:39:32.857Z,2.00
2023-09-17T10:40:32.840Z,1.40
2023-09-17T10:41:32.896Z,1.40
2023-09-17T10:42:32.847Z,1.50
2023-09-17T10:43:32.787Z,1.00
2023-09-17T10:44:32.759Z,1.30
2023-09-17T10:45:32.758Z,1.70
2023-09-17T10:46:32.816Z,1.10
2023-09-17T10:47:32.802Z,1.50
2023-09-17T10:48:32.710Z,1.10
2023-09-17T10:49:32.885Z,1.30
2023-09-17T10:50:32.735Z,1.00
2023-09-17T10:51:32.677Z,1.10
2023-09-17T10:52:32.688Z,1.20
2023-09-17T10:53:32.670Z,0.80
2023-09-17T10:54:32.650Z,0.70
2023-09-17T10:55:32.664Z,0.70
2023-09-17T10:56:32.641Z,1.20
2023-09-17T10:57:32.635Z,1.10
2023-09-17T10:58:32.645Z,0.60
2023-09-17T10:59:32.606Z,0.80
2023-09-17T11:00:33.636Z,0.90
2023-09-17T11:01:32.786Z,0.80
2023-09-17T11:02:32.726Z,0.60
2023-09-17T11:03:32.603Z,1.30
2023-09-17T11:04:32.577Z,1.00
2023-09-17T11:05:32.532Z,0.80
2023-09-17T11:06:32.550Z,0.80
2023-09-17T11:07:32.580Z,0.80
2023-09-17T11:08:32.505Z,0.90
2023-09-17T11:09:32.499Z,0.60
2023-09-17T11:10:33.145Z,0.60
2023-09-17T11:11:32.497Z,0.50
2023-09-17T11:12:32.462Z,0.60
2023-09-17T11:13:32.512Z,1.00
2023-09-17T11:14:32.451Z,0.70
2023-09-17T11:15:32.441Z,1.70
2023-09-17T11:16:32.552Z,0.70
2023-09-17T11:17:32.605Z,0.80
2023-09-17T11:18:35.663Z,0.80
2023-09-17T11:19:32.411Z,1.00
2023-09-17T11:20:32.384Z,0.60
2023-09-17T11:21:32.374Z,0.80
2023-09-17T11:22:32.389Z,0.60
2023-09-17T11:23:32.546Z,0.80
2023-09-17T11:24:32.339Z,0.60
2023-09-17T11:25:32.368Z,0.90
2023-09-17T11:26:32.330Z,0.40
2023-09-17T11:27:32.332Z,0.40
2023-09-17T11:28:32.337Z,0.70
2023-09-17T11:29:32.340Z,0.60
2023-09-17T11:30:32.382Z,0.70
2023-09-17T11:31:32.377Z,0.50
2023-09-17T11:32:32.318Z,0.40
2023-09-17T11:33:32.256Z,0.80
2023-09-17T11:34:32.312Z,0.60
2023-09-17T11:35:32.259Z,0.50
2023-09-17T11:36:32.235Z,0.70
2023-09-17T11:37:32.282Z,1.00
2023-09-17T11:38:32.197Z,0.80
2023-09-17T11:39:32.190Z,1.00
2023-09-17T11:40:32.201Z,0.70
2023-09-17T11:41:32.210Z,0.60
2023-09-17T11:42:32.161Z,0.70
2023-09-17T11:43:32.198Z,1.00
2023-09-17T11:44:32.184Z,0.50
2023-09-17T11:45:32.129Z,0.70
2023-09-17T11:46:32.238Z,0.80
2023-09-17T11:47:32.146Z,0.70
2023-09-17T11:48:34.387Z,0.50
2023-09-17T11:49:32.154Z,0.60
2023-09-17T11:50:32.087Z,0.70
2023-09-17T11:51:32.107Z,1.00
2023-09-17T11:52:32.079Z,0.70
2023-09-17T11:53:32.051Z,0.70
2023-09-17T11:54:32.035Z,0.60
2023-09-17T11:55:32.091Z,0.60
2023-09-17T11:56:32.032Z,0.70
2023-09-17T11:57:32.004Z,0.60
2023-09-17T11:58:32.014Z,0.90
2023-09-17T11:59:31.976Z,1.00
2023-09-17T12:00:31.987Z,1.00
2023-09-17T12:01:32.114Z,0.80
2023-09-17T12:02:32.042Z,0.60
2023-09-17T12:03:31.940Z,0.50
2023-09-17T12:04:32.177Z,1.00
2023-09-17T12:05:31.926Z,1.20
2023-09-17T12:06:31.922Z,0.40
2023-09-17T12:07:38.924Z,0.80
2023-09-17T12:08:31.897Z,1.00
2023-09-17T12:09:31.878Z,1.10
2023-09-17T12:10:31.884Z,1.20
2023-09-17T12:11:31.897Z,1.00
2023-09-17T12:12:31.828Z,0.80
2023-09-17T12:13:31.915Z,0.70
2023-09-17T12:14:31.824Z,0.90
2023-09-17T12:15:31.806Z,1.10
2023-09-17T12:16:31.999Z,0.60
2023-09-17T12:17:31.945Z,0.80
2023-09-17T12:18:31.797Z,1.00
2023-09-17T12:19:31.890Z,0.70
2023-09-17T12:20:31.823Z,0.70
2023-09-17T12:21:31.749Z,0.70
2023-09-17T12:22:31.763Z,0.50
2023-09-17T12:23:31.754Z,0.90
2023-09-17T12:24:31.739Z,0.60
2023-09-17T12:25:31.809Z,0.30
2023-09-17T12:26:31.712Z,0.60
2023-09-17T12:27:31.712Z,0.50
2023-09-17T12:28:31.764Z,0.80
2023-09-17T12:29:31.668Z,0.60
2023-09-17T12:30:31.688Z,0.90
2023-09-17T12:31:31.689Z,0.90
2023-09-17T12:32:31.879Z,0.40
2023-09-17T12:33:31.642Z,0.70
2023-09-17T12:34:31.629Z,0.80
2023-09-17T12:35:31.663Z,0.50
2023-09-17T12:36:31.617Z,0.70
2023-09-17T12:37:31.594Z,0.80
2023-09-17T12:38:31.582Z,1.00
2023-09-17T12:39:31.582Z,0.90
2023-09-17T12:40:31.565Z,0.50
2023-09-17T12:41:40.562Z,0.80
2023-09-17T12:42:31.561Z,0.90
2023-09-17T12:43:31.543Z,1.00
2023-09-17T12:44:31.528Z,0.90
2023-09-17T12:45:31.569Z,0.50
2023-09-17T12:46:31.530Z,0.80
2023-09-17T12:47:31.514Z,1.40
2023-09-17T12:48:31.487Z,0.90
2023-09-17T12:49:31.470Z,0.60
2023-09-17T12:50:31.476Z,0.80
2023-09-17T12:51:31.472Z,0.50
2023-09-17T12:52:31.487Z,0.70
2023-09-17T12:53:31.437Z,0.90
2023-09-17T12:54:31.422Z,0.60
2023-09-17T12:55:31.429Z,0.90
2023-09-17T12:56:31.446Z,0.90
2023-09-17T12:57:31.413Z,0.90
2023-09-17T12:58:31.391Z,0.60
2023-09-17T12:59:31.381Z,0.70
2023-09-17T13:00:31.390Z,0.50
2023-09-17T13:01:31.394Z,0.60
2023-09-17T13:02:31.594Z,0.80
2023-09-17T13:03:31.462Z,0.90
2023-09-17T13:04:31.322Z,0.70
2023-09-17T13:05:31.335Z,0.40
2023-09-17T13:06:31.315Z,0.80
2023-09-17T13:07:31.406Z,0.90
2023-09-17T13:08:31.298Z,0.90
2023-09-17T13:09:31.273Z,1.00
2023-09-17T13:10:31.280Z,0.70
2023-09-17T13:11:31.273Z,0.90
2023-09-17T13:12:31.279Z,0.80
2023-09-17T13:13:31.235Z,1.00
2023-09-17T13:14:31.243Z,0.80
2023-09-17T13:15:31.214Z,0.50
2023-09-17T13:16:31.257Z,1.00
2023-09-17T13:17:31.266Z,0.50
2023-09-17T13:18:31.201Z,0.60